Date,TemperatureHighF,TemperatureAvgF,TemperatureLowF,DewpointHighF,DewpointAvgF,DewpointLowF,HumidityHigh,HumidityAvg,HumidityLow,PressureMaxIn,PressureMinIn,WindSpeedMaxMPH,WindSpeedAvgMPH,GustSpeedMaxMPH,PrecipitationSumIn
2013-3-1,41,37,34,29,27,26,75,68,59,29.95,29.88,2,0,0,0.00
2013-3-2,41,34,28,29,24,16,77,66,51,29.97,29.86,6,1,0,0.00
2013-3-3,37,29,24,19,16,13,66,57,47,30.04,29.93,5,2,0,0.00
2013-3-4,52,37,25,16,13,8,63,40,18,30.15,30.01,4,1,0,0.00
2013-3-5,43,40,37,38,28,13,96,66,31,30.09,29.64,1,0,0,0.00
2013-3-6,38,34,30,37,25,21,96,71,58,30.14,29.63,9,4,0,0.00
2013-3-7,46,35,30,29,25,22,77,67,49,30.31,30.14,9,2,0,0.00
2013-3-8,51,39,30,27,24,21,71,56,35,30.36,30.26,4,1,0,0.00
2013-3-9,61,46,34,33,28,23,70,50,27,30.38,30.26,1,0,0,0.00
2013-3-10,64,52,42,38,33,29,63,49,34,30.30,30.17,3,0,0,0.00
2013-3-11,53,49,46,50,40,34,95,71,53,30.19,29.88,4,0,0,0.00
2013-3-12,56,50,42,51,42,31,97,75,47,29.99,29.75,6,1,0,0.00
2013-3-13,45,39,31,32,24,15,70,55,40,30.19,29.97,10,2,0,0.00
2013-3-14,47,36,27,21,16,13,62,46,28,30.30,30.18,7,2,0,0.00
2013-3-15,64,47,33,39,28,17,60,47,29,30.22,29.91,3,1,0,0.00
2013-3-16,76,63,50,53,46,38,72,55,36,29.91,29.66,6,2,0,0.00
2013-3-17,61,53,37,52,46,35,94,78,66,30.13,29.83,0,0,0,0.00
2013-3-18,37,35,34,35,34,33,97,96,94,30.17,29.94,0,0,0,0.00
2013-3-19,58,45,32,44,27,10,98,57,25,30.08,29.86,7,2,0,0.00
2013-3-20,54,43,33,28,13,8,66,31,16,30.10,29.83,6,1,0,0.00
2013-3-21,37,31,25,29,14,9,74,49,35,30.03,29.79,5,2,0,0.00
2013-3-22,51,35,21,19,13,8,65,44,21,30.11,29.99,2,0,0,0.00
2013-3-23,53,44,37,38,25,14,63,48,33,30.07,29.91,1,0,0,0.00
2013-3-24,45,38,32,38,35,31,96,89,63,29.94,29.57,0,0,0,0.00
2013-3-25,39,34,31,31,28,22,97,78,54,29.86,29.57,5,1,0,0.00
2013-3-26,42,35,32,27,25,22,71,65,55,30.19,29.86,4,1,0,0.00
2013-3-27,43,36,31,27,22,19,76,57,44,30.29,30.18,5,2,0,0.00
2013-3-28,49,39,30,27,22,19,65,51,36,30.33,30.25,5,1,0,0.00
2013-3-29,58,45,33,31,24,21,64,46,25,30.36,30.21,3,0,0,0.00
2013-3-30,63,51,40,36,31,28,71,49,30,30.25,30.07,2,0,0,0.00
2013-3-31,60,51,45,54,45,-100,97,85,54,30.07,29.81,4,0,0,0.00